Time;durP1;ratioP1;P1;durP2;ratioP2;P2;SDS_P1;SDS_P2;PMS_P1;PMS_P2;Temp;Humidity;BMP_temperature;BMP_pressure;BME280_temperature;BME280_humidity;BME280_pressure;Samples;Min_cycle;Max_cycle;Signal;HPM_P1;HPM_P2
2023/10/14 00:01:07;;;;;;;4.47;1.75;;;;;;;20.46;45.02;92981.50;6063294;23;20046;-88
2023/10/14 00:03:33;;;;;;;2.45;1.30;;;;;;;20.45;45.46;92980.03;6088706;23;20098;-88
2023/10/14 00:06:06;;;;;;;2.25;1.35;;;;;;;20.45;45.32;92974.53;6064237;23;20446;-88
2023/10/14 00:08:35;;;;;;;2.08;1.65;;;;;;;20.44;45.37;92984.03;6065752;23;20018;-88
2023/10/14 00:11:07;;;;;;;1.85;1.30;;;;;;;20.43;45.31;92980.56;6063691;23;20021;-88
2023/10/14 00:13:42;;;;;;;3.30;1.48;;;;;;;20.45;45.27;92980.78;6064138;23;20011;-88
2023/10/14 00:18:57;;;;;;;1.40;1.27;;;;;;;20.46;45.33;92962.28;6066678;23;20109;-88
2023/10/14 00:21:25;;;;;;;2.05;1.33;;;;;;;20.44;45.11;92964.81;6063261;23;20029;-88
2023/10/14 00:23:57;;;;;;;2.15;1.50;;;;;;;20.46;45.00;92959.53;6087965;23;20328;-88
2023/10/14 00:26:24;;;;;;;4.10;1.90;;;;;;;20.44;45.17;92960.06;6067377;23;20034;-89
2023/10/14 00:28:54;;;;;;;3.55;1.75;;;;;;;20.44;45.36;92953.84;6089361;23;20022;-88
2023/10/14 00:31:23;;;;;;;3.38;1.70;;;;;;;20.43;45.14;92942.13;6066900;23;20050;-88
2023/10/14 00:33:52;;;;;;;1.73;1.20;;;;;;;20.45;45.21;92953.31;6065464;23;20038;-88
2023/10/14 00:36:19;;;;;;;3.28;1.40;;;;;;;20.43;45.25;92953.09;6066745;23;20026;-89
2023/10/14 00:38:45;;;;;;;2.88;1.75;;;;;;;20.42;45.13;92939.91;6066358;23;20038;-88
2023/10/14 00:41:12;;;;;;;2.80;1.90;;;;;;;20.43;45.13;92941.38;6064794;23;20018;-88
2023/10/14 00:43:39;;;;;;;2.20;1.50;;;;;;;20.44;45.22;92929.88;6065770;23;20455;-88
2023/10/14 00:46:11;;;;;;;2.55;1.48;;;;;;;20.43;45.24;92941.38;6065250;23;20459;-88
2023/10/14 00:48:40;;;;;;;2.75;1.65;;;;;;;20.42;45.40;92940.66;6067284;23;20138;-88
2023/10/14 00:51:10;;;;;;;2.50;1.67;;;;;;;20.43;45.27;92938.66;6089141;23;20018;-88
2023/10/14 00:53:39;;;;;;;2.58;1.90;;;;;;;20.42;45.13;92937.16;6067324;23;20050;-88
2023/10/14 00:56:06;;;;;;;1.98;1.27;;;;;;;20.40;45.11;92939.72;6065639;23;20057;-88
2023/10/14 00:58:39;;;;;;;4.13;1.42;;;;;;;20.42;45.24;92937.16;6065661;23;20033;-88
2023/10/14 01:01:07;;;;;;;2.17;1.50;;;;;;;20.43;45.23;92936.63;6067716;23;20098;-88
2023/10/14 01:03:33;;;;;;;2.83;1.50;;;;;;;20.41;45.51;92930.19;6065840;23;20042;-88
2023/10/14 01:06:06;;;;;;;4.28;1.50;;;;;;;20.42;45.28;92940.66;6066202;23;20015;-88
2023/10/14 01:08:35;;;;;;;1.80;1.35;;;;;;;20.42;45.30;92932.41;6068656;23;20022;-89
2023/10/14 01:11:03;;;;;;;1.63;1.33;;;;;;;20.40;45.13;92931.47;6065719;23;20026;-88
2023/10/14 01:13:28;;;;;;;2.53;1.30;;;;;;;20.41;45.38;92932.94;6065649;23;20018;-88
2023/10/14 01:16:08;;;;;;;2.50;1.20;;;;;;;20.41;45.18;92924.72;6066167;23;20084;-87
2023/10/14 01:18:35;;;;;;;1.88;1.17;;;;;;;20.43;45.31;92914.66;6071015;23;20022;-88
2023/10/14 01:21:00;;;;;;;1.73;1.30;;;;;;;20.43;45.35;92927.66;6065148;23;20022;-88
2023/10/14 01:23:26;;;;;;;2.10;1.48;;;;;;;20.41;45.50;92919.97;6064333;23;20329;-88
2023/10/14 01:25:52;;;;;;;2.17;1.50;;;;;;;20.42;45.31;92915.94;6065471;23;20022;-88
2023/10/14 01:28:21;;;;;;;4.45;1.67;;;;;;;20.42;45.42;92909.72;6065122;23;20030;-88
2023/10/14 01:31:10;;;;;;;2.20;1.50;;;;;;;20.41;45.38;92914.47;6066624;23;20025;-88
2023/10/14 01:33:36;;;;;;;1.83;1.20;;;;;;;20.42;45.21;92906.97;6069611;23;20022;-88
2023/10/14 01:36:02;;;;;;;2.20;1.30;;;;;;;20.40;45.41;92907.50;6065385;23;20455;-88
2023/10/14 01:38:30;;;;;;;2.35;1.55;;;;;;;20.41;45.56;92911.00;6064394;23;20065;-88
2023/10/14 01:40:56;;;;;;;1.80;1.33;;;;;;;20.40;45.50;92902.00;6089798;23;20073;-88
2023/10/14 01:43:24;;;;;;;1.70;1.15;;;;;;;20.39;45.56;92906.03;6064533;23;20022;-88
2023/10/14 01:48:25;;;;;;;2.53;1.40;;;;;;;20.41;45.50;92891.78;6065249;23;20562;-89
2023/10/14 01:50:57;;;;;;;1.98;1.58;;;;;;;20.39;45.26;92884.06;6042363;23;20034;-88
2023/10/14 01:53:27;;;;;;;2.70;1.50;;;;;;;20.38;45.25;92888.09;6067389;23;20037;-89
2023/10/14 01:55:54;;;;;;;1.90;1.37;;;;;;;20.40;45.35;92893.78;6065872;23;20484;-88
2023/10/14 01:58:23;;;;;;;1.80;1.20;;;;;;;20.41;45.31;92880.78;6064524;23;20029;-88
2023/10/14 02:00:58;;;;;;;2.63;1.40;;;;;;;20.38;45.36;92877.09;6066056;23;20086;-88
2023/10/14 02:03:24;;;;;;;2.53;1.40;;;;;;;20.39;45.27;92880.59;6066675;23;20124;-88
2023/10/14 02:05:52;;;;;;;3.00;1.83;;;;;;;20.38;45.29;92877.09;6064968;23;20514;-88
2023/10/14 02:08:21;;;;;;;5.55;1.50;;;;;;;20.40;45.41;92882.06;6066237;23;20097;-87
2023/10/14 02:10:47;;;;;;;1.90;1.30;;;;;;;20.38;45.43;92877.09;6065794;23;20037;-88
2023/10/14 02:13:18;;;;;;;1.55;1.10;;;;;;;20.38;45.32;92870.88;6064351;23;20023;-88
2023/10/14 02:15:46;;;;;;;;;;;;;;;20.41;45.64;92875.28;6066353;23;20021;-88
2023/10/14 02:18:20;;;;;;;2.38;1.40;;;;;;;20.37;45.65;92889.34;6088579;23;20197;-88
2023/10/14 02:20:57;;;;;;;1.80;1.25;;;;;;;20.35;45.71;92883.63;6066998;23;20081;-88
2023/10/14 02:23:26;;;;;;;2.47;1.55;;;;;;;20.36;45.35;92879.63;6065189;23;20050;-88
2023/10/14 02:25:56;;;;;;;2.22;1.25;;;;;;;20.36;45.80;92874.13;6064829;23;20022;-88
2023/10/14 02:28:22;;;;;;;1.40;1.10;;;;;;;20.38;45.31;92873.63;6065729;23;20066;-88
2023/10/14 02:30:51;;;;;;;2.83;1.10;;;;;;;20.36;45.16;92879.63;6065318;23;20018;-89
2023/10/14 02:33:19;;;;;;;1.95;1.10;;;;;;;20.37;45.44;92877.63;6065403;23;20049;-88
2023/10/14 02:35:45;;;;;;;2.58;1.17;;;;;;;20.40;45.32;92884.81;6065130;23;20061;-88
2023/10/14 02:38:10;;;;;;;3.33;2.13;;;;;;;20.38;45.44;92874.34;6064246;23;20455;-88
2023/10/14 02:40:37;;;;;;;1.40;1.20;;;;;;;20.39;45.14;92883.31;6064940;23;20026;-88
2023/10/14 02:43:04;;;;;;;2.67;1.20;;;;;;;20.38;45.43;92887.34;6064696;23;20085;-88
2023/10/14 02:45:38;;;;;;;2.15;1.10;;;;;;;20.36;45.14;92885.09;6089006;23;20014;-88
2023/10/14 02:48:04;;;;;;;2.05;1.17;;;;;;;20.37;45.18;92888.63;6088965;23;20015;-88
2023/10/14 02:50:31;;;;;;;1.85;1.02;;;;;;;20.38;45.51;92884.59;6064992;23;20026;-88
2023/10/14 02:53:01;;;;;;;1.55;1.38;;;;;;;20.37;45.30;92877.63;6065179;23;20018;-88
2023/10/14 02:55:42;;;;;;;1.73;1.20;;;;;;;20.38;45.15;92885.34;6087338;23;20018;-88
2023/10/14 02:58:08;;;;;;;2.67;1.48;;;;;;;20.38;45.40;92887.34;6087813;23;20446;-88
2023/10/14 03:00:34;;;;;;;3.10;1.55;;;;;;;20.37;45.21;92894.09;6064585;23;20045;-88
2023/10/14 03:03:02;;;;;;;3.03;1.55;;;;;;;20.37;45.26;92886.59;6088804;23;20553;-88
2023/10/14 03:06:05;;;;;;;2.97;1.67;;;;;;;20.36;45.19;92879.63;6064707;23;20105;-88
2023/10/14 03:08:23;;;;;;;1.98;1.10;;;;;;;20.37;45.07;92881.13;6069475;23;20114;-88
2023/10/14 03:10:59;;;;;;;2.13;1.33;;;;;;;20.38;45.34;92890.81;6063869;23;20091;-88
2023/10/14 03:13:29;;;;;;;2.33;1.40;;;;;;;20.37;45.43;92881.13;6066392;23;20073;-88
2023/10/14 03:15:54;;;;;;;1.40;0.95;;;;;;;20.36;45.29;92892.59;6065448;23;20466;-88
2023/10/14 03:18:20;;;;;;;3.58;1.40;;;;;;;20.37;45.26;92886.59;6064307;23;20093;-88
2023/10/14 03:23:23;;;;;;;2.55;1.40;;;;;;;20.37;45.43;92883.13;6066118;23;20093;-88
2023/10/14 03:25:53;;;;;;;3.70;1.42;;;;;;;20.36;45.26;92879.63;6063858;23;20019;-88
2023/10/14 03:28:19;;;;;;;1.65;1.30;;;;;;;20.37;44.93;92880.38;6064234;23;20073;-88
2023/10/14 03:30:58;;;;;;;4.65;1.30;;;;;;;20.35;45.09;92883.63;6064591;23;20085;-88
2023/10/14 03:33:32;;;;;;;1.75;1.38;;;;;;;20.35;45.91;92886.38;6067751;23;20096;-88
2023/10/14 03:36:05;;;;;;;1.90;1.27;;;;;;;20.36;45.45;92885.09;6065069;23;20077;-89
2023/10/14 03:41:04;;;;;;;2.22;1.50;;;;;;;20.33;45.07;92879.97;6064008;23;20026;-88
2023/10/14 03:43:43;;;;;;;1.40;1.10;;;;;;;20.35;45.32;92878.13;6064360;23;20022;-89
2023/10/14 03:46:12;;;;;;;2.25;1.30;;;;;;;20.36;45.50;92878.88;6066844;23;20030;-88
2023/10/14 03:48:47;;;;;;;2.10;1.30;;;;;;;20.34;45.36;92882.19;6066200;23;20431;-88
2023/10/14 03:51:25;;;;;;;1.65;1.05;;;;;;;20.35;45.32;92880.19;6053986;23;20394;-88
2023/10/14 03:53:52;;;;;;;2.25;1.20;;;;;;;20.35;45.48;92875.41;6088961;23;20533;-88
2023/10/14 03:56:21;;;;;;;2.38;1.25;;;;;;;20.35;45.49;92874.69;6062847;23;20019;-88
2023/10/14 03:58:49;;;;;;;1.92;1.10;;;;;;;20.33;45.48;92879.97;6088501;23;20065;-88
2023/10/14 04:01:22;;;;;;;3.22;1.25;;;;;;;20.35;45.32;92877.44;6062784;23;20327;-88
2023/10/14 04:03:52;;;;;;;3.47;1.40;;;;;;;20.36;45.64;92874.13;6088520;23;20014;-88
2023/10/14 04:06:19;;;;;;;2.38;1.05;;;;;;;20.34;45.36;92868.47;6087880;23;20447;-88
2023/10/14 04:08:48;;;;;;;1.50;0.90;;;;;;;20.35;45.17;92878.13;6064873;23;20085;-87
2023/10/14 04:11:25;;;;;;;1.67;1.25;;;;;;;20.32;45.35;92871.00;6064529;23;20019;-88
2023/10/14 04:13:58;;;;;;;1.67;1.20;;;;;;;20.36;45.31;92862.41;6067126;23;20046;-88
2023/10/14 04:16:47;;;;;;;1.70;1.00;;;;;;;20.35;45.54;92867.16;6066111;23;20022;-88
2023/10/14 04:19:26;;;;;;;2.03;1.38;;;;;;;20.36;45.33;92867.91;6047979;23;20629;-88
2023/10/14 04:22:01;;;;;;;3.03;1.10;;;;;;;20.34;45.16;92867.72;6067191;23;20069;-88
2023/10/14 04:27:16;;;;;;;2.47;1.63;;;;;;;20.35;45.21;92860.97;6064088;23;20018;-88
2023/10/14 04:29:51;;;;;;;1.58;1.00;;;;;;;20.32;45.62;92871.00;6088463;23;20018;-88
2023/10/14 04:32:25;;;;;;;0.98;0.82;;;;;;;20.33;45.30;92866.25;6065094;23;20398;-88
2023/10/14 04:34:54;;;;;;;2.05;1.38;;;;;;;20.32;45.43;92867.53;6065319;23;20022;-88
2023/10/14 04:37:21;;;;;;;2.83;1.13;;;;;;;20.33;45.62;92860.75;6063348;23;20018;-88
2023/10/14 04:39:47;;;;;;;1.65;1.40;;;;;;;20.32;45.56;92862.78;6063815;23;20023;-88
2023/10/14 04:44:55;;;;;;;1.75;1.17;;;;;;;20.33;45.46;92864.25;6064846;23;20086;-88
2023/10/14 04:47:35;;;;;;;1.83;1.15;;;;;;;20.34;45.15;92876.69;6065264;23;20014;-88
2023/10/14 04:50:14;;;;;;;1.77;1.45;;;;;;;20.33;45.56;92875.22;6066085;23;20014;-88
2023/10/14 04:52:41;;;;;;;2.28;1.35;;;;;;;20.33;45.52;92869.00;6065316;23;20025;-88
2023/10/14 04:55:18;;;;;;;1.48;1.10;;;;;;;20.34;45.49;92864.97;6063015;23;20031;-88
2023/10/14 04:57:51;;;;;;;1.67;1.40;;;;;;;20.30;45.41;92868.06;6066158;23;20089;-88
2023/10/14 05:00:30;;;;;;;2.15;1.23;;;;;;;20.31;45.47;92869.53;6063783;23;20023;-88
2023/10/14 05:02:59;;;;;;;1.83;1.38;;;;;;;20.32;45.48;92865.50;6087478;23;20026;-88
2023/10/14 05:05:30;;;;;;;1.38;1.17;;;;;;;20.33;45.59;92860.75;6087324;23;20011;-88
2023/10/14 05:07:58;;;;;;;1.77;0.90;;;;;;;20.34;45.42;92862.22;6064008;23;20316;-88
2023/10/14 05:10:26;;;;;;;1.90;1.27;;;;;;;20.33;45.55;92871.75;6063245;23;20022;-88
2023/10/14 05:12:52;;;;;;;2.15;0.85;;;;;;;20.33;45.55;92874.50;6065078;23;20014;-87
2023/10/14 05:15:21;;;;;;;3.58;1.27;;;;;;;20.31;45.38;92860.56;6065352;23;20010;-88
2023/10/14 05:17:50;;;;;;;2.08;1.35;;;;;;;20.32;45.63;92853.78;6089877;23;20018;-88
2023/10/14 05:20:19;;;;;;;1.95;1.10;;;;;;;20.33;45.60;92861.50;6072222;23;20104;-88
2023/10/14 05:22:47;;;;;;;1.15;0.95;;;;;;;20.34;45.53;92867.72;6066336;23;20450;-88
2023/10/14 05:25:16;;;;;;;1.55;1.25;;;;;;;20.31;45.50;92871.53;6065443;23;20729;-88
2023/10/14 05:27:46;;;;;;;1.67;1.20;;;;;;;20.33;45.35;92877.22;6065954;23;20033;-88
2023/10/14 05:30:15;;;;;;;1.48;1.00;;;;;;;20.32;45.49;92873.00;6066373;23;20014;-88
2023/10/14 05:32:43;;;;;;;1.55;1.13;;;;;;;20.34;45.51;92871.22;6066796;23;20033;-88
2023/10/14 05:35:09;;;;;;;1.70;1.20;;;;;;;20.34;45.47;92868.47;6064959;23;20030;-88
2023/10/14 05:37:36;;;;;;;1.30;1.10;;;;;;;20.33;45.63;92869.00;6065098;23;20070;-88
2023/10/14 05:40:04;;;;;;;2.10;1.38;;;;;;;20.30;45.29;92870.81;6065275;23;20454;-87
2023/10/14 05:42:29;;;;;;;1.15;0.98;;;;;;;20.33;45.40;92880.72;6065843;23;20109;-88
2023/10/14 05:44:58;;;;;;;1.27;1.10;;;;;;;20.32;45.67;92881.25;6065481;23;20017;-88
2023/10/14 05:47:27;;;;;;;2.50;0.95;;;;;;;20.33;45.54;92882.72;6065424;23;20018;-88
2023/10/14 05:49:52;;;;;;;1.92;1.20;;;;;;;20.32;45.38;92886.75;6066887;23;20462;-87
2023/10/14 05:52:21;;;;;;;1.02;0.70;;;;;;;20.34;45.33;92889.69;6064479;23;20022;-88
2023/10/14 05:54:49;;;;;;;2.05;1.10;;;;;;;20.33;45.42;92888.22;6066004;23;20710;-88
2023/10/14 05:57:16;;;;;;;1.58;1.27;;;;;;;20.35;45.46;92889.13;6064582;23;20065;-88
2023/10/14 05:59:43;;;;;;;2.38;1.23;;;;;;;20.34;45.38;92889.69;6065370;23;20386;-89
2023/10/14 06:02:12;;;;;;;2.33;1.27;;;;;;;20.34;45.40;92906.16;6064629;23;20755;-88
2023/10/14 06:04:41;;;;;;;2.17;1.20;;;;;;;20.34;45.48;92915.13;6067178;23;20014;-89
2023/10/14 06:07:08;;;;;;;1.38;1.00;;;;;;;20.35;45.42;92916.56;6064739;23;20015;-89
2023/10/14 06:09:35;;;;;;;1.20;0.90;;;;;;;20.38;45.60;92917.53;6065695;23;20018;-88
2023/10/14 06:12:01;;;;;;;1.90;1.17;;;;;;;20.38;45.44;92912.06;6065302;23;20046;-88
2023/10/14 06:14:29;;;;;;;32.30;25.45;;;;;;;20.41;45.39;92922.69;6063943;23;20022;-88
2023/10/14 06:17:01;;;;;;;5.10;3.10;;;;;;;20.44;45.81;92916.16;6067204;23;20033;-91
2023/10/14 06:19:26;;;;;;;9.85;7.93;;;;;;;20.45;45.23;92914.13;6073178;23;20749;-90
2023/10/14 06:21:52;;;;;;;1.98;1.30;;;;;;;20.47;45.20;92928.06;6072442;23;20014;-90
2023/10/14 06:24:18;;;;;;;3.25;1.70;;;;;;;20.45;45.21;92914.88;6068338;23;20014;-90
2023/10/14 06:26:44;;;;;;;3.10;2.25;;;;;;;20.46;45.29;92919.09;6045744;23;20101;-89
2023/10/14 06:29:09;;;;;;;3.15;2.55;;;;;;;20.43;45.27;92913.94;6092073;23;20024;-90
2023/10/14 06:31:37;;;;;;;10.70;7.00;;;;;;;20.45;45.46;92919.63;6069767;23;20013;-90
2023/10/14 06:34:08;;;;;;;7.65;5.28;;;;;;;20.44;45.21;92921.63;6069465;23;20049;-91
2023/10/14 06:36:35;;;;;;;6.78;5.13;;;;;;;20.46;45.42;92921.09;6070830;23;20490;-88
2023/10/14 06:39:13;;;;;;;4.10;3.35;;;;;;;20.48;45.34;92924.06;6044658;23;20020;-88
2023/10/14 06:41:43;;;;;;;4.40;3.13;;;;;;;20.48;45.18;92916.56;6057925;23;20402;-88
2023/10/14 06:44:12;;;;;;;4.00;3.40;;;;;;;20.50;45.19;92927.00;6045082;23;20359;-88
2023/10/14 06:46:37;;;;;;;3.25;2.92;;;;;;;20.50;45.13;92924.25;6077026;23;20241;-88
2023/10/14 06:49:13;;;;;;;6.13;5.07;;;;;;;20.52;45.31;92927.19;6044741;23;20025;-91
2023/10/14 06:51:46;;;;;;;4.13;2.83;;;;;;;20.54;45.41;92913.69;6063717;23;20007;-92
2023/10/14 06:54:14;;;;;;;6.00;5.43;;;;;;;20.56;45.07;92922.13;6083644;23;20006;-91
2023/10/14 06:56:44;;;;;;;4.72;2.90;;;;;;;20.55;45.09;92912.41;5994415;23;20118;-90
2023/10/14 06:59:13;;;;;;;;;;;;;;;20.56;45.10;92913.88;6037570;23;20053;-91
2023/10/14 07:01:38;;;;;;;5.25;4.10;;;;;;;20.55;45.10;92915.16;6098133;23;20360;-90
2023/10/14 07:04:04;;;;;;;7.95;5.72;;;;;;;20.53;45.47;92914.94;6038248;23;20014;-90
2023/10/14 07:06:29;;;;;;;9.05;6.70;;;;;;;20.55;45.18;92917.91;6015008;23;20542;-91
2023/10/14 07:08:55;;;;;;;6.43;5.15;;;;;;;20.54;45.28;92924.66;6037745;23;20015;-90
2023/10/14 07:11:21;;;;;;;118.47;107.82;;;;;;;20.55;45.21;92928.16;6016053;23;20105;-90
2023/10/14 07:13:47;;;;;;;10.50;7.05;;;;;;;20.58;45.33;92927.03;6040384;23;20069;-88
2023/10/14 07:16:13;;;;;;;8.05;6.45;;;;;;;20.62;45.42;92928.19;6063867;23;20101;-88
2023/10/14 07:18:39;;;;;;;6.20;5.57;;;;;;;20.64;45.87;92933.16;6017620;23;20022;-88
2023/10/14 07:21:12;;;;;;;6.80;5.28;;;;;;;20.66;45.21;92933.34;6040175;23;20105;-87
2023/10/14 07:23:38;;;;;;;11.35;7.30;;;;;;;20.68;45.41;92930.81;6043536;23;20089;-86
2023/10/14 07:26:11;;;;;;;36.75;31.48;;;;;;;20.64;45.26;92931.13;6064479;23;20022;-86
2023/10/14 07:28:42;;;;;;;28.05;24.02;;;;;;;20.63;45.32;92915.19;6040959;23;20018;-86
2023/10/14 07:31:10;;;;;;;10.35;9.00;;;;;;;20.62;45.62;92925.44;6041273;23;20102;-87
2023/10/14 07:33:36;;;;;;;9.38;7.35;;;;;;;20.61;45.34;92921.22;6040336;23;20725;-88
2023/10/14 07:36:06;;;;;;;11.63;8.05;;;;;;;20.61;45.47;92923.97;6039845;23;20046;-87
2023/10/14 07:38:35;;;;;;;11.07;8.55;;;;;;;20.59;45.30;92920.28;6070627;23;20046;-87
2023/10/14 07:41:01;;;;;;;9.60;8.18;;;;;;;20.61;45.21;92931.47;6069656;23;20025;-88
2023/10/14 07:43:27;;;;;;;16.17;11.18;;;;;;;20.60;45.57;92924.50;6069853;23;20386;-88
2023/10/14 07:45:52;;;;;;;11.43;9.43;;;;;;;20.63;45.21;92931.69;6070253;23;20092;-89
2023/10/14 07:48:19;;;;;;;10.98;9.27;;;;;;;20.62;45.37;92938.44;6069634;23;20036;-88
2023/10/14 07:50:48;;;;;;;11.77;8.25;;;;;;;20.62;45.21;92935.69;6071531;23;20050;-88
2023/10/14 07:53:14;;;;;;;9.68;7.53;;;;;;;20.62;45.37;92941.91;6070106;23;20366;-89
2023/10/14 07:55:40;;;;;;;10.48;7.97;;;;;;;20.60;45.28;92930.00;6047498;23;20104;-88
2023/10/14 07:58:10;;;;;;;14.43;11.15;;;;;;;20.61;45.20;92932.22;6069866;23;20068;-88
2023/10/14 08:00:40;;;;;;;14.43;12.10;;;;;;;20.61;45.34;92928.72;6070816;23;20018;-88
2023/10/14 08:03:07;;;;;;;14.85;11.25;;;;;;;20.57;45.16;92931.81;6094374;23;20006;-88
2023/10/14 08:05:38;;;;;;;13.63;11.15;;;;;;;20.56;45.59;92927.59;6070870;23;20050;-89
2023/10/14 08:08:06;;;;;;;15.00;11.07;;;;;;;20.58;45.45;92924.31;6118074;23;20029;-88
2023/10/14 08:10:32;;;;;;;13.68;9.25;;;;;;;20.59;45.61;92918.28;6069891;23;20104;-88
2023/10/14 08:13:01;;;;;;;9.60;7.65;;;;;;;20.57;45.42;92917.38;6069946;23;20096;-88
2023/10/14 08:15:29;;;;;;;12.68;8.13;;;;;;;20.58;45.66;92930.53;6071850;23;20018;-89
2023/10/14 08:17:58;;;;;;;8.63;6.80;;;;;;;20.58;45.45;92925.03;6070648;23;20045;-89
2023/10/14 08:20:23;;;;;;;8.10;6.60;;;;;;;20.56;45.55;92933.09;6065198;23;20545;-89
2023/10/14 08:22:49;;;;;;;8.50;6.15;;;;;;;20.56;45.71;92935.84;6065248;23;20034;-87
2023/10/14 08:25:18;;;;;;;8.38;6.18;;;;;;;20.57;45.80;92936.59;6033113;23;20069;-88
2023/10/14 08:27:45;;;;;;;7.65;6.28;;;;;;;20.56;45.60;92933.09;6035214;23;20019;-87
2023/10/14 08:30:11;;;;;;;8.90;6.00;;;;;;;20.55;45.54;92939.88;6034202;23;20030;-88
2023/10/14 08:32:40;;;;;;;7.45;6.32;;;;;;;20.56;45.42;92946.84;5987627;23;20126;-89
2023/10/14 08:35:15;;;;;;;6.97;5.22;;;;;;;20.55;45.72;92936.38;6010314;23;20927;-89
2023/10/14 08:37:51;;;;;;;6.57;5.35;;;;;;;20.56;45.68;92944.09;6013329;23;20019;-89
2023/10/14 08:40:19;;;;;;;6.55;5.68;;;;;;;20.57;45.72;92942.06;5987537;23;20025;-89
2023/10/14 08:42:49;;;;;;;7.15;5.63;;;;;;;20.54;45.70;92938.38;6011585;23;20155;-88
2023/10/14 08:45:16;;;;;;;6.63;5.40;;;;;;;20.55;45.75;92945.34;6035490;23;20530;-88
2023/10/14 08:47:44;;;;;;;9.35;5.32;;;;;;;20.55;45.75;92950.13;6036042;23;20517;-88
2023/10/14 08:50:12;;;;;;;19.27;5.50;;;;;;;20.56;45.70;92941.34;6009372;23;20027;-88
2023/10/14 08:52:38;;;;;;;7.97;5.43;;;;;;;20.56;45.77;92944.09;6037030;23;20430;-89
2023/10/14 08:55:05;;;;;;;8.27;5.50;;;;;;;20.56;45.85;92940.59;5989135;23;20090;-89
2023/10/14 08:57:31;;;;;;;5.80;4.47;;;;;;;20.56;45.79;92957.06;6101053;23;20034;-89
2023/10/14 08:59:57;;;;;;;8.27;5.53;;;;;;;20.55;45.73;92947.38;6073357;23;20019;-88
2023/10/14 09:02:22;;;;;;;8.68;4.50;;;;;;;20.53;45.95;92953.41;6067874;23;20036;-90
2023/10/14 09:04:48;;;;;;;6.38;4.35;;;;;;;20.56;46.06;92955.06;6067521;23;20081;-89
2023/10/14 09:07:14;;;;;;;5.82;4.50;;;;;;;20.55;45.84;92942.63;6066049;23;20033;-90
2023/10/14 09:09:39;;;;;;;6.88;4.10;;;;;;;20.54;46.00;92943.88;6067571;23;20033;-90
2023/10/14 09:12:10;;;;;;;6.97;4.80;;;;;;;20.52;46.03;92947.16;6065492;23;20026;-88
2023/10/14 09:14:37;;;;;;;6.75;4.55;;;;;;;20.55;45.94;92952.84;6068734;23;20018;-88
2023/10/14 09:17:08;;;;;;;5.70;4.00;;;;;;;20.53;45.80;92951.38;6089005;23;20010;-88
2023/10/14 09:19:48;;;;;;;7.15;4.47;;;;;;;20.53;45.94;92953.41;6070691;23;20014;-89
2023/10/14 09:22:24;;;;;;;5.47;4.57;;;;;;;20.53;45.87;92947.91;6069382;23;20124;-90
2023/10/14 09:24:51;;;;;;;5.40;4.03;;;;;;;20.56;46.25;92941.34;6071151;23;20045;-89
2023/10/14 09:27:17;;;;;;;5.78;4.18;;;;;;;20.55;46.01;92945.34;6093135;23;20025;-90
2023/10/14 09:29:43;;;;;;;8.43;4.78;;;;;;;20.55;46.21;92953.59;6095455;23;20026;-89
2023/10/14 09:32:12;;;;;;;5.07;3.40;;;;;;;20.53;46.04;92958.88;6069469;23;20009;-89
2023/10/14 09:34:41;;;;;;;4.93;4.22;;;;;;;20.52;46.19;92958.16;6072538;23;20081;-89
2023/10/14 09:37:13;;;;;;;5.47;4.30;;;;;;;20.54;46.14;92952.13;6046867;23;20382;-89
2023/10/14 09:39:39;;;;;;;6.30;4.43;;;;;;;20.52;46.07;92949.91;6048936;23;20034;-89
2023/10/14 09:42:06;;;;;;;5.38;4.15;;;;;;;20.52;46.07;92940.94;6069245;23;20065;-88
2023/10/14 09:44:31;;;;;;;4.60;4.03;;;;;;;20.52;46.03;92955.41;6070463;23;20057;-89
2023/10/14 09:46:58;;;;;;;4.32;3.70;;;;;;;20.53;46.26;92969.88;6094494;23;20006;-89
2023/10/14 09:49:24;;;;;;;4.22;3.42;;;;;;;20.54;46.59;92960.34;6046232;23;20025;-90
2023/10/14 09:51:51;;;;;;;6.07;3.33;;;;;;;20.52;46.09;92962.91;6070242;23;20022;-88
2023/10/14 09:54:16;;;;;;;4.57;3.35;;;;;;;20.53;46.06;92967.84;6093797;23;20016;-88
2023/10/14 09:56:42;;;;;;;5.50;3.38;;;;;;;20.52;46.35;92957.41;6070773;23;20358;-89
2023/10/14 09:59:08;;;;;;;5.85;3.85;;;;;;;20.53;46.26;92958.88;6045218;23;20021;-88
2023/10/14 10:01:33;;;;;;;5.25;3.85;;;;;;;20.53;46.42;92954.13;6070127;23;20014;-90
2023/10/14 10:04:04;;;;;;;3.88;3.30;;;;;;;20.53;46.40;92954.13;6070311;23;20048;-89
2023/10/14 10:06:51;;;;;;;6.07;3.25;;;;;;;20.53;46.52;92953.41;6070840;23;20022;-89
2023/10/14 10:09:37;;;;;;;4.95;3.83;;;;;;;20.53;46.46;92951.38;6047804;23;20034;-89
2023/10/14 10:12:04;;;;;;;3.42;2.90;;;;;;;20.55;46.86;92950.84;6096138;23;20018;-88
2023/10/14 10:14:29;;;;;;;7.80;3.83;;;;;;;20.54;46.37;92952.13;6070534;23;20018;-89
2023/10/14 10:16:57;;;;;;;6.53;3.78;;;;;;;20.55;46.45;92944.63;6093787;23;20041;-89
2023/10/14 10:19:22;;;;;;;4.13;3.28;;;;;;;20.56;46.58;92946.84;6069435;23;20022;-89
2023/10/14 10:22:13;;;;;;;5.05;3.67;;;;;;;20.53;46.66;92950.66;6070444;23;20461;-90
2023/10/14 10:24:41;;;;;;;4.32;3.45;;;;;;;20.55;46.63;92939.13;6093604;23;20060;-89
2023/10/14 10:27:10;;;;;;;4.95;3.83;;;;;;;20.52;46.32;92941.66;6069618;23;20013;-89
2023/10/14 10:29:48;;;;;;;3.50;2.88;;;;;;;20.55;46.77;92941.88;6047820;23;20017;-88
2023/10/14 10:32:22;;;;;;;5.07;3.30;;;;;;;20.54;46.57;92941.13;6070455;23;20030;-89
2023/10/14 10:35:06;;;;;;;3.95;3.05;;;;;;;20.53;46.65;92943.16;6046872;23;20442;-88
2023/10/14 10:37:34;;;;;;;4.40;3.28;;;;;;;20.55;46.52;92939.13;6092275;23;20022;-89
2023/10/14 10:40:05;;;;;;;4.47;3.58;;;;;;;20.56;46.73;92935.09;6070536;23;20025;-89
2023/10/14 10:42:31;;;;;;;4.30;2.88;;;;;;;20.56;46.63;92935.84;6047022;23;20052;-89
2023/10/14 10:44:57;;;;;;;6.90;3.55;;;;;;;20.55;46.61;92930.88;6070522;23;20045;-89
2023/10/14 10:47:22;;;;;;;4.00;3.25;;;;;;;20.54;47.26;92930.16;6093565;23;20021;-89
2023/10/14 10:49:54;;;;;;;3.95;3.30;;;;;;;20.55;46.96;92928.16;6070408;23;20014;-88
2023/10/14 10:52:19;;;;;;;3.55;2.53;;;;;;;20.55;47.01;92933.63;6045411;23;20022;-89
2023/10/14 10:54:45;;;;;;;4.20;3.22;;;;;;;20.55;47.29;92928.88;6070449;23;20025;-88
2023/10/14 10:57:13;;;;;;;7.07;3.55;;;;;;;20.56;47.02;92932.38;6092808;23;20508;-89
2023/10/14 10:59:39;;;;;;;4.53;3.13;;;;;;;20.56;46.95;92938.59;6070820;23;20025;-89
2023/10/14 11:02:11;;;;;;;3.65;2.90;;;;;;;20.57;47.40;92926.31;6068335;23;20018;-89
2023/10/14 11:04:38;;;;;;;3.83;3.42;;;;;;;20.57;47.00;92934.56;6046298;23;20468;-88
2023/10/14 11:07:05;;;;;;;3.80;2.75;;;;;;;20.56;47.27;92930.34;6068960;23;20010;-89
2023/10/14 11:09:31;;;;;;;4.80;3.10;;;;;;;20.58;47.08;92935.28;6046128;23;20014;-89
2023/10/14 11:12:00;;;;;;;4.07;3.17;;;;;;;20.58;47.10;92925.03;6069611;23;20390;-89
2023/10/14 11:14:26;;;;;;;4.20;3.50;;;;;;;20.57;46.87;92929.06;6069515;23;20029;-89
2023/10/14 11:16:54;;;;;;;4.35;3.10;;;;;;;20.57;47.59;92923.56;6070238;23;20438;-89
2023/10/14 11:19:20;;;;;;;4.75;3.33;;;;;;;20.58;47.17;92916.06;6093999;23;20029;-90
2023/10/14 11:21:47;;;;;;;4.72;3.33;;;;;;;20.57;47.44;92920.81;6069592;23;20021;-89
2023/10/14 11:24:12;;;;;;;3.50;2.85;;;;;;;20.58;47.36;92924.31;6069047;23;20022;-89
2023/10/14 11:26:38;;;;;;;5.60;4.18;;;;;;;20.57;47.46;92914.63;6069455;23;20070;-89
2023/10/14 11:29:03;;;;;;;4.30;2.90;;;;;;;20.59;47.74;92907.28;6068175;23;20024;-88
2023/10/14 11:31:30;;;;;;;4.93;2.97;;;;;;;20.59;48.07;92912.03;6070285;23;20017;-89
2023/10/14 11:33:59;;;;;;;3.90;2.97;;;;;;;20.57;47.38;92903.63;6069656;23;20069;-89
2023/10/14 11:36:25;;;;;;;5.90;3.10;;;;;;;20.58;47.37;92905.06;6070064;23;20017;-89
2023/10/14 11:38:50;;;;;;;3.60;2.97;;;;;;;20.58;47.94;92905.06;6045457;23;20052;-89
2023/10/14 11:41:17;;;;;;;5.75;2.88;;;;;;;20.56;47.72;92908.38;6092643;23;20386;-88
2023/10/14 11:43:44;;;;;;;5.80;3.00;;;;;;;20.58;47.87;92916.81;6069885;23;20006;-88
2023/10/14 11:46:12;;;;;;;5.85;3.47;;;;;;;20.59;47.79;92918.28;6044850;23;20020;-89
2023/10/14 11:48:38;;;;;;;6.18;3.58;;;;;;;20.58;47.63;92919.53;6093448;23;20033;-89
2023/10/14 11:51:11;;;;;;;5.38;3.33;;;;;;;20.59;47.75;92921.03;6068040;23;20018;-89
2023/10/14 11:53:38;;;;;;;5.13;3.05;;;;;;;20.59;47.99;92914.78;6048102;23;20337;-89
2023/10/14 11:56:04;;;;;;;3.00;2.47;;;;;;;20.57;47.66;92923.56;6069536;23;20018;-88